sensor_id;sensor_type;location;lat;lon;timestamp;P1;durP1;ratioP1;P2;durP2;ratioP2
16173;SDS011;14031;50.158;8.626;2022-10-31T00:01:19;12.20;;;6.40;;
16173;SDS011;14031;50.158;8.626;2022-10-31T00:03:48;7.40;;;6.63;;
16173;SDS011;14031;50.158;8.626;2022-10-31T00:06:15;7.10;;;6.57;;
16173;SDS011;14031;50.158;8.626;2022-10-31T00:08:43;7.73;;;6.70;;
16173;SDS011;14031;50.158;8.626;2022-10-31T00:11:10;7.40;;;6.80;;
16173;SDS011;14031;50.158;8.626;2022-10-31T00:13:37;11.27;;;6.77;;
16173;SDS011;14031;50.158;8.626;2022-10-31T00:16:04;11.43;;;6.27;;
16173;SDS011;14031;50.158;8.626;2022-10-31T00:18:33;7.43;;;6.73;;
16173;SDS011;14031;50.158;8.626;2022-10-31T00:20:59;11.07;;;6.67;;
16173;SDS011;14031;50.158;8.626;2022-10-31T00:23:26;8.53;;;6.70;;
16173;SDS011;14031;50.158;8.626;2022-10-31T00:25:53;7.03;;;6.43;;
16173;SDS011;14031;50.158;8.626;2022-10-31T00:28:25;7.53;;;6.27;;
16173;SDS011;14031;50.158;8.626;2022-10-31T00:30:52;16.43;;;7.60;;
16173;SDS011;14031;50.158;8.626;2022-10-31T00:33:19;7.47;;;6.70;;
16173;SDS011;14031;50.158;8.626;2022-10-31T00:35:50;10.20;;;6.93;;
16173;SDS011;14031;50.158;8.626;2022-10-31T00:38:17;8.43;;;7.63;;
16173;SDS011;14031;50.158;8.626;2022-10-31T00:40:43;9.37;;;6.73;;
16173;SDS011;14031;50.158;8.626;2022-10-31T00:43:10;9.03;;;7.00;;
16173;SDS011;14031;50.158;8.626;2022-10-31T00:45:37;10.43;;;7.00;;
16173;SDS011;14031;50.158;8.626;2022-10-31T00:48:04;16.83;;;6.37;;
16173;SDS011;14031;50.158;8.626;2022-10-31T00:50:31;13.00;;;6.33;;
16173;SDS011;14031;50.158;8.626;2022-10-31T00:52:59;7.83;;;6.50;;
16173;SDS011;14031;50.158;8.626;2022-10-31T00:55:26;10.10;;;6.10;;
16173;SDS011;14031;50.158;8.626;2022-10-31T00:57:53;19.97;;;6.60;;
16173;SDS011;14031;50.158;8.626;2022-10-31T01:00:20;7.43;;;6.00;;
16173;SDS011;14031;50.158;8.626;2022-10-31T01:02:46;6.77;;;6.17;;
16173;SDS011;14031;50.158;8.626;2022-10-31T01:05:13;8.73;;;6.57;;
16173;SDS011;14031;50.158;8.626;2022-10-31T01:07:41;8.30;;;6.40;;
16173;SDS011;14031;50.158;8.626;2022-10-31T01:10:10;12.90;;;7.33;;
16173;SDS011;14031;50.158;8.626;2022-10-31T01:12:37;8.30;;;6.60;;
16173;SDS011;14031;50.158;8.626;2022-10-31T01:15:05;14.97;;;7.47;;
16173;SDS011;14031;50.158;8.626;2022-10-31T01:17:32;6.23;;;5.53;;
16173;SDS011;14031;50.158;8.626;2022-10-31T01:19:59;9.93;;;5.90;;
16173;SDS011;14031;50.158;8.626;2022-10-31T01:22:26;7.80;;;5.70;;
16173;SDS011;14031;50.158;8.626;2022-10-31T01:24:53;9.17;;;5.93;;
16173;SDS011;14031;50.158;8.626;2022-10-31T01:27:21;14.80;;;7.10;;
16173;SDS011;14031;50.158;8.626;2022-10-31T01:29:48;14.90;;;7.33;;
16173;SDS011;14031;50.158;8.626;2022-10-31T01:32:14;11.47;;;7.00;;
16173;SDS011;14031;50.158;8.626;2022-10-31T01:34:41;12.70;;;6.90;;
16173;SDS011;14031;50.158;8.626;2022-10-31T01:37:08;8.83;;;5.73;;
16173;SDS011;14031;50.158;8.626;2022-10-31T01:39:35;7.57;;;5.77;;
16173;SDS011;14031;50.158;8.626;2022-10-31T01:42:02;10.17;;;6.67;;
16173;SDS011;14031;50.158;8.626;2022-10-31T01:44:50;6.30;;;5.60;;
16173;SDS011;14031;50.158;8.626;2022-10-31T01:47:19;8.50;;;5.90;;
16173;SDS011;14031;50.158;8.626;2022-10-31T01:49:53;6.57;;;5.77;;
16173;SDS011;14031;50.158;8.626;2022-10-31T01:52:24;9.77;;;5.80;;
16173;SDS011;14031;50.158;8.626;2022-10-31T01:54:55;10.40;;;5.63;;
16173;SDS011;14031;50.158;8.626;2022-10-31T01:57:26;8.73;;;5.77;;
16173;SDS011;14031;50.158;8.626;2022-10-31T01:59:57;7.37;;;5.43;;
16173;SDS011;14031;50.158;8.626;2022-10-31T02:02:26;8.27;;;5.73;;
16173;SDS011;14031;50.158;8.626;2022-10-31T02:04:55;8.10;;;5.73;;
16173;SDS011;14031;50.158;8.626;2022-10-31T02:07:23;11.83;;;6.13;;
16173;SDS011;14031;50.158;8.626;2022-10-31T02:09:53;11.90;;;6.50;;
16173;SDS011;14031;50.158;8.626;2022-10-31T02:12:22;11.00;;;5.30;;
16173;SDS011;14031;50.158;8.626;2022-10-31T02:14:50;8.10;;;5.47;;
16173;SDS011;14031;50.158;8.626;2022-10-31T02:17:18;10.53;;;5.93;;
16173;SDS011;14031;50.158;8.626;2022-10-31T02:19:46;11.23;;;5.77;;
16173;SDS011;14031;50.158;8.626;2022-10-31T02:22:21;7.57;;;6.40;;
16173;SDS011;14031;50.158;8.626;2022-10-31T02:25:02;6.57;;;5.87;;
16173;SDS011;14031;50.158;8.626;2022-10-31T02:27:51;7.63;;;5.43;;
16173;SDS011;14031;50.158;8.626;2022-10-31T02:30:37;6.57;;;6.00;;
16173;SDS011;14031;50.158;8.626;2022-10-31T02:33:19;6.57;;;6.10;;
16173;SDS011;14031;50.158;8.626;2022-10-31T02:35:54;9.53;;;6.27;;
16173;SDS011;14031;50.158;8.626;2022-10-31T02:38:29;7.63;;;6.17;;
16173;SDS011;14031;50.158;8.626;2022-10-31T02:41:06;6.90;;;6.13;;
16173;SDS011;14031;50.158;8.626;2022-10-31T02:43:40;6.87;;;6.27;;
16173;SDS011;14031;50.158;8.626;2022-10-31T02:46:14;6.90;;;6.20;;
16173;SDS011;14031;50.158;8.626;2022-10-31T02:48:52;8.80;;;6.27;;
16173;SDS011;14031;50.158;8.626;2022-10-31T02:51:23;12.97;;;6.00;;
16173;SDS011;14031;50.158;8.626;2022-10-31T02:53:50;11.63;;;6.03;;
16173;SDS011;14031;50.158;8.626;2022-10-31T02:56:21;8.23;;;6.00;;
16173;SDS011;14031;50.158;8.626;2022-10-31T02:58:48;6.37;;;5.73;;
16173;SDS011;14031;50.158;8.626;2022-10-31T03:04:31;6.30;;;5.70;;
16173;SDS011;14031;50.158;8.626;2022-10-31T03:07:08;6.77;;;5.67;;
16173;SDS011;14031;50.158;8.626;2022-10-31T03:09:42;7.17;;;5.90;;
16173;SDS011;14031;50.158;8.626;2022-10-31T03:12:19;8.87;;;5.53;;
16173;SDS011;14031;50.158;8.626;2022-10-31T03:14:56;7.33;;;6.17;;
16173;SDS011;14031;50.158;8.626;2022-10-31T03:17:31;7.37;;;5.53;;
16173;SDS011;14031;50.158;8.626;2022-10-31T03:20:04;5.70;;;5.20;;
16173;SDS011;14031;50.158;8.626;2022-10-31T03:22:35;10.33;;;5.93;;
16173;SDS011;14031;50.158;8.626;2022-10-31T03:25:04;9.67;;;5.60;;
16173;SDS011;14031;50.158;8.626;2022-10-31T03:27:32;11.63;;;6.30;;
16173;SDS011;14031;50.158;8.626;2022-10-31T03:30:02;10.50;;;5.43;;
16173;SDS011;14031;50.158;8.626;2022-10-31T03:32:32;6.73;;;6.00;;
16173;SDS011;14031;50.158;8.626;2022-10-31T03:35:06;7.60;;;5.60;;
16173;SDS011;14031;50.158;8.626;2022-10-31T03:37:36;8.63;;;6.13;;
16173;SDS011;14031;50.158;8.626;2022-10-31T03:40:06;8.43;;;6.20;;
16173;SDS011;14031;50.158;8.626;2022-10-31T03:42:38;7.30;;;5.80;;
16173;SDS011;14031;50.158;8.626;2022-10-31T03:45:08;6.07;;;5.50;;
16173;SDS011;14031;50.158;8.626;2022-10-31T03:47:38;10.40;;;5.60;;
16173;SDS011;14031;50.158;8.626;2022-10-31T03:50:11;8.50;;;5.87;;
16173;SDS011;14031;50.158;8.626;2022-10-31T03:52:41;6.27;;;5.37;;
16173;SDS011;14031;50.158;8.626;2022-10-31T03:55:15;8.90;;;5.43;;
16173;SDS011;14031;50.158;8.626;2022-10-31T03:57:45;6.33;;;5.73;;
16173;SDS011;14031;50.158;8.626;2022-10-31T04:00:17;9.23;;;6.23;;
16173;SDS011;14031;50.158;8.626;2022-10-31T04:02:46;9.47;;;6.07;;
16173;SDS011;14031;50.158;8.626;2022-10-31T04:05:19;6.13;;;5.63;;
16173;SDS011;14031;50.158;8.626;2022-10-31T04:07:50;9.63;;;6.07;;
16173;SDS011;14031;50.158;8.626;2022-10-31T04:10:20;7.80;;;5.90;;
16173;SDS011;14031;50.158;8.626;2022-10-31T04:12:57;6.87;;;5.97;;
16173;SDS011;14031;50.158;8.626;2022-10-31T04:15:27;10.20;;;6.27;;
16173;SDS011;14031;50.158;8.626;2022-10-31T04:17:59;8.43;;;5.77;;
16173;SDS011;14031;50.158;8.626;2022-10-31T04:20:36;10.43;;;6.37;;
16173;SDS011;14031;50.158;8.626;2022-10-31T04:23:08;11.00;;;6.10;;
16173;SDS011;14031;50.158;8.626;2022-10-31T04:25:44;10.20;;;6.00;;
16173;SDS011;14031;50.158;8.626;2022-10-31T04:28:11;13.07;;;6.47;;
16173;SDS011;14031;50.158;8.626;2022-10-31T04:30:37;10.47;;;6.10;;
16173;SDS011;14031;50.158;8.626;2022-10-31T04:33:04;8.13;;;7.27;;
16173;SDS011;14031;50.158;8.626;2022-10-31T04:35:31;7.53;;;5.97;;
16173;SDS011;14031;50.158;8.626;2022-10-31T04:37:59;6.53;;;5.90;;
16173;SDS011;14031;50.158;8.626;2022-10-31T04:40:26;6.80;;;6.07;;
16173;SDS011;14031;50.158;8.626;2022-10-31T04:42:53;6.53;;;5.43;;
16173;SDS011;14031;50.158;8.626;2022-10-31T04:45:20;7.20;;;5.67;;
16173;SDS011;14031;50.158;8.626;2022-10-31T04:47:46;7.67;;;5.63;;
16173;SDS011;14031;50.158;8.626;2022-10-31T04:50:13;6.67;;;6.03;;
16173;SDS011;14031;50.158;8.626;2022-10-31T04:52:40;7.70;;;5.90;;
16173;SDS011;14031;50.158;8.626;2022-10-31T04:55:09;8.60;;;5.53;;
16173;SDS011;14031;50.158;8.626;2022-10-31T04:57:40;9.47;;;5.77;;
16173;SDS011;14031;50.158;8.626;2022-10-31T05:00:07;6.00;;;5.43;;
16173;SDS011;14031;50.158;8.626;2022-10-31T05:02:41;5.70;;;5.30;;
16173;SDS011;14031;50.158;8.626;2022-10-31T05:05:09;8.20;;;5.33;;
16173;SDS011;14031;50.158;8.626;2022-10-31T05:07:37;9.03;;;6.23;;
16173;SDS011;14031;50.158;8.626;2022-10-31T05:10:05;6.43;;;5.63;;
16173;SDS011;14031;50.158;8.626;2022-10-31T05:12:34;8.57;;;5.43;;
16173;SDS011;14031;50.158;8.626;2022-10-31T05:15:00;9.77;;;6.20;;
16173;SDS011;14031;50.158;8.626;2022-10-31T05:17:27;13.07;;;6.07;;
16173;SDS011;14031;50.158;8.626;2022-10-31T05:19:54;7.83;;;6.00;;
16173;SDS011;14031;50.158;8.626;2022-10-31T05:22:20;6.57;;;5.93;;
16173;SDS011;14031;50.158;8.626;2022-10-31T05:24:47;7.53;;;5.57;;
16173;SDS011;14031;50.158;8.626;2022-10-31T05:27:14;8.67;;;5.60;;
16173;SDS011;14031;50.158;8.626;2022-10-31T05:29:42;10.83;;;6.33;;
16173;SDS011;14031;50.158;8.626;2022-10-31T05:32:09;6.67;;;5.73;;
16173;SDS011;14031;50.158;8.626;2022-10-31T05:34:36;10.03;;;5.53;;
16173;SDS011;14031;50.158;8.626;2022-10-31T05:37:02;10.40;;;6.33;;
16173;SDS011;14031;50.158;8.626;2022-10-31T05:39:29;11.40;;;5.60;;
16173;SDS011;14031;50.158;8.626;2022-10-31T05:41:56;7.67;;;6.13;;
16173;SDS011;14031;50.158;8.626;2022-10-31T05:44:23;6.67;;;6.07;;
16173;SDS011;14031;50.158;8.626;2022-10-31T05:46:51;5.93;;;5.43;;
16173;SDS011;14031;50.158;8.626;2022-10-31T05:49:18;11.03;;;6.10;;
16173;SDS011;14031;50.158;8.626;2022-10-31T05:51:45;14.40;;;5.97;;
16173;SDS011;14031;50.158;8.626;2022-10-31T05:54:11;8.60;;;5.93;;
16173;SDS011;14031;50.158;8.626;2022-10-31T05:56:38;12.13;;;5.97;;
16173;SDS011;14031;50.158;8.626;2022-10-31T05:59:05;10.83;;;6.17;;
16173;SDS011;14031;50.158;8.626;2022-10-31T06:01:31;8.33;;;5.90;;
16173;SDS011;14031;50.158;8.626;2022-10-31T06:04:05;7.70;;;5.30;;
16173;SDS011;14031;50.158;8.626;2022-10-31T06:06:32;6.97;;;5.13;;
16173;SDS011;14031;50.158;8.626;2022-10-31T06:08:58;9.50;;;5.67;;
16173;SDS011;14031;50.158;8.626;2022-10-31T06:11:25;10.50;;;6.17;;
16173;SDS011;14031;50.158;8.626;2022-10-31T06:13:52;10.47;;;6.00;;
16173;SDS011;14031;50.158;8.626;2022-10-31T06:16:19;10.40;;;6.70;;
16173;SDS011;14031;50.158;8.626;2022-10-31T06:18:45;7.23;;;6.53;;
16173;SDS011;14031;50.158;8.626;2022-10-31T06:21:13;10.57;;;6.30;;
16173;SDS011;14031;50.158;8.626;2022-10-31T06:23:40;5.93;;;5.23;;
16173;SDS011;14031;50.158;8.626;2022-10-31T06:26:07;7.17;;;5.90;;
16173;SDS011;14031;50.158;8.626;2022-10-31T06:28:34;8.77;;;5.97;;
16173;SDS011;14031;50.158;8.626;2022-10-31T06:31:00;8.10;;;6.33;;
16173;SDS011;14031;50.158;8.626;2022-10-31T06:33:27;9.70;;;6.43;;
16173;SDS011;14031;50.158;8.626;2022-10-31T06:35:54;11.13;;;6.10;;
16173;SDS011;14031;50.158;8.626;2022-10-31T06:38:22;7.63;;;6.17;;
16173;SDS011;14031;50.158;8.626;2022-10-31T06:40:49;8.43;;;5.87;;
16173;SDS011;14031;50.158;8.626;2022-10-31T06:43:16;11.10;;;5.90;;
16173;SDS011;14031;50.158;8.626;2022-10-31T06:45:42;7.73;;;6.23;;
16173;SDS011;14031;50.158;8.626;2022-10-31T06:48:09;7.83;;;6.27;;
16173;SDS011;14031;50.158;8.626;2022-10-31T06:50:36;7.53;;;6.20;;
16173;SDS011;14031;50.158;8.626;2022-10-31T06:53:02;8.43;;;5.67;;
16173;SDS011;14031;50.158;8.626;2022-10-31T06:55:31;7.90;;;6.53;;
16173;SDS011;14031;50.158;8.626;2022-10-31T06:57:58;6.77;;;6.00;;
16173;SDS011;14031;50.158;8.626;2022-10-31T07:00:26;6.67;;;6.07;;
16173;SDS011;14031;50.158;8.626;2022-10-31T07:02:54;6.70;;;6.10;;
16173;SDS011;14031;50.158;8.626;2022-10-31T07:05:21;9.07;;;6.07;;
16173;SDS011;14031;50.158;8.626;2022-10-31T07:07:51;6.87;;;5.90;;
16173;SDS011;14031;50.158;8.626;2022-10-31T07:10:19;6.43;;;5.93;;
16173;SDS011;14031;50.158;8.626;2022-10-31T07:12:47;7.13;;;6.47;;
16173;SDS011;14031;50.158;8.626;2022-10-31T07:15:13;13.03;;;6.43;;
16173;SDS011;14031;50.158;8.626;2022-10-31T07:17:40;7.00;;;6.23;;
16173;SDS011;14031;50.158;8.626;2022-10-31T07:20:08;8.23;;;7.33;;
16173;SDS011;14031;50.158;8.626;2022-10-31T07:22:35;6.73;;;5.87;;
16173;SDS011;14031;50.158;8.626;2022-10-31T07:25:03;9.23;;;7.37;;
16173;SDS011;14031;50.158;8.626;2022-10-31T07:27:34;7.00;;;6.50;;
16173;SDS011;14031;50.158;8.626;2022-10-31T07:30:04;6.43;;;5.83;;
16173;SDS011;14031;50.158;8.626;2022-10-31T07:32:37;6.70;;;6.20;;
16173;SDS011;14031;50.158;8.626;2022-10-31T07:35:04;7.10;;;6.57;;
16173;SDS011;14031;50.158;8.626;2022-10-31T07:37:31;9.47;;;6.73;;
16173;SDS011;14031;50.158;8.626;2022-10-31T07:39:58;6.83;;;6.13;;
16173;SDS011;14031;50.158;8.626;2022-10-31T07:42:25;7.07;;;6.13;;
16173;SDS011;14031;50.158;8.626;2022-10-31T07:44:51;7.50;;;6.80;;
16173;SDS011;14031;50.158;8.626;2022-10-31T07:47:20;7.30;;;6.57;;
16173;SDS011;14031;50.158;8.626;2022-10-31T07:49:46;8.47;;;6.70;;
16173;SDS011;14031;50.158;8.626;2022-10-31T07:52:13;7.83;;;6.27;;
16173;SDS011;14031;50.158;8.626;2022-10-31T07:54:40;6.77;;;6.27;;
16173;SDS011;14031;50.158;8.626;2022-10-31T07:57:07;6.57;;;6.07;;
16173;SDS011;14031;50.158;8.626;2022-10-31T07:59:33;7.03;;;6.37;;
16173;SDS011;14031;50.158;8.626;2022-10-31T08:02:00;9.17;;;6.67;;
16173;SDS011;14031;50.158;8.626;2022-10-31T08:04:28;17.73;;;6.57;;
16173;SDS011;14031;50.158;8.626;2022-10-31T08:06:55;6.50;;;6.00;;
16173;SDS011;14031;50.158;8.626;2022-10-31T08:09:22;7.83;;;6.07;;
16173;SDS011;14031;50.158;8.626;2022-10-31T08:11:48;6.30;;;5.80;;
16173;SDS011;14031;50.158;8.626;2022-10-31T08:14:15;8.40;;;6.70;;
16173;SDS011;14031;50.158;8.626;2022-10-31T08:16:42;8.27;;;6.37;;
16173;SDS011;14031;50.158;8.626;2022-10-31T08:19:09;12.27;;;6.43;;
16173;SDS011;14031;50.158;8.626;2022-10-31T08:21:37;7.47;;;6.47;;
16173;SDS011;14031;50.158;8.626;2022-10-31T08:24:04;6.93;;;5.47;;
16173;SDS011;14031;50.158;8.626;2022-10-31T08:26:31;6.70;;;6.07;;
16173;SDS011;14031;50.158;8.626;2022-10-31T08:28:58;6.80;;;5.70;;
16173;SDS011;14031;50.158;8.626;2022-10-31T08:31:25;6.63;;;6.03;;
16173;SDS011;14031;50.158;8.626;2022-10-31T08:33:53;8.13;;;6.60;;
16173;SDS011;14031;50.158;8.626;2022-10-31T08:36:20;7.73;;;5.77;;
16173;SDS011;14031;50.158;8.626;2022-10-31T08:38:49;8.17;;;5.87;;
16173;SDS011;14031;50.158;8.626;2022-10-31T08:41:15;10.97;;;6.00;;
16173;SDS011;14031;50.158;8.626;2022-10-31T08:43:42;7.20;;;6.17;;
16173;SDS011;14031;50.158;8.626;2022-10-31T08:46:09;6.83;;;6.23;;
16173;SDS011;14031;50.158;8.626;2022-10-31T08:48:36;6.73;;;6.17;;
16173;SDS011;14031;50.158;8.626;2022-10-31T08:51:03;8.00;;;6.10;;
16173;SDS011;14031;50.158;8.626;2022-10-31T08:53:29;6.57;;;5.97;;
16173;SDS011;14031;50.158;8.626;2022-10-31T08:55:58;7.70;;;5.77;;
16173;SDS011;14031;50.158;8.626;2022-10-31T08:58:25;7.27;;;6.50;;
16173;SDS011;14031;50.158;8.626;2022-10-31T09:00:52;8.40;;;7.23;;
16173;SDS011;14031;50.158;8.626;2022-10-31T09:03:21;11.77;;;7.23;;
16173;SDS011;14031;50.158;8.626;2022-10-31T09:05:49;6.63;;;6.13;;
16173;SDS011;14031;50.158;8.626;2022-10-31T09:08:16;7.00;;;6.50;;
16173;SDS011;14031;50.158;8.626;2022-10-31T09:10:43;7.03;;;6.43;;
16173;SDS011;14031;50.158;8.626;2022-10-31T09:13:12;8.77;;;6.43;;
16173;SDS011;14031;50.158;8.626;2022-10-31T09:15:41;11.10;;;6.70;;
16173;SDS011;14031;50.158;8.626;2022-10-31T09:18:11;10.53;;;6.70;;
16173;SDS011;14031;50.158;8.626;2022-10-31T09:20:40;6.83;;;6.33;;
16173;SDS011;14031;50.158;8.626;2022-10-31T09:23:09;7.63;;;6.83;;
16173;SDS011;14031;50.158;8.626;2022-10-31T09:25:38;7.03;;;6.43;;
16173;SDS011;14031;50.158;8.626;2022-10-31T09:28:05;7.77;;;7.07;;
16173;SDS011;14031;50.158;8.626;2022-10-31T09:30:34;8.33;;;7.50;;
16173;SDS011;14031;50.158;8.626;2022-10-31T09:33:03;11.37;;;7.87;;
16173;SDS011;14031;50.158;8.626;2022-10-31T09:35:30;8.57;;;7.63;;
16173;SDS011;14031;50.158;8.626;2022-10-31T09:37:59;9.07;;;7.60;;
16173;SDS011;14031;50.158;8.626;2022-10-31T09:40:31;12.40;;;8.07;;
16173;SDS011;14031;50.158;8.626;2022-10-31T09:43:03;12.07;;;8.40;;
16173;SDS011;14031;50.158;8.626;2022-10-31T09:45:41;14.63;;;8.17;;
16173;SDS011;14031;50.158;8.626;2022-10-31T09:48:21;8.53;;;7.73;;
16173;SDS011;14031;50.158;8.626;2022-10-31T09:51:00;9.03;;;8.13;;
16173;SDS011;14031;50.158;8.626;2022-10-31T09:53:32;9.53;;;8.30;;
16173;SDS011;14031;50.158;8.626;2022-10-31T09:56:04;11.03;;;8.00;;
16173;SDS011;14031;50.158;8.626;2022-10-31T09:58:33;9.47;;;8.53;;
16173;SDS011;14031;50.158;8.626;2022-10-31T10:01:09;9.73;;;8.73;;
16173;SDS011;14031;50.158;8.626;2022-10-31T10:03:49;15.10;;;10.00;;
16173;SDS011;14031;50.158;8.626;2022-10-31T10:06:20;12.20;;;8.93;;
16173;SDS011;14031;50.158;8.626;2022-10-31T10:08:49;14.10;;;9.43;;
16173;SDS011;14031;50.158;8.626;2022-10-31T10:11:24;14.00;;;8.70;;
16173;SDS011;14031;50.158;8.626;2022-10-31T10:14:04;10.43;;;8.03;;
16173;SDS011;14031;50.158;8.626;2022-10-31T10:16:47;12.20;;;9.00;;
16173;SDS011;14031;50.158;8.626;2022-10-31T10:19:29;16.63;;;9.50;;
16173;SDS011;14031;50.158;8.626;2022-10-31T10:22:06;12.87;;;9.17;;
16173;SDS011;14031;50.158;8.626;2022-10-31T10:24:44;11.83;;;9.43;;
16173;SDS011;14031;50.158;8.626;2022-10-31T10:27:28;16.00;;;9.07;;
16173;SDS011;14031;50.158;8.626;2022-10-31T10:30:12;11.93;;;9.20;;
16173;SDS011;14031;50.158;8.626;2022-10-31T10:32:47;9.63;;;8.70;;
16173;SDS011;14031;50.158;8.626;2022-10-31T10:35:19;11.13;;;8.70;;
16173;SDS011;14031;50.158;8.626;2022-10-31T10:37:51;13.93;;;9.43;;
16173;SDS011;14031;50.158;8.626;2022-10-31T10:40:23;11.20;;;9.20;;
16173;SDS011;14031;50.158;8.626;2022-10-31T10:42:53;11.00;;;9.40;;
16173;SDS011;14031;50.158;8.626;2022-10-31T10:45:50;11.00;;;9.93;;
16173;SDS011;14031;50.158;8.626;2022-10-31T10:48:43;10.27;;;9.10;;
16173;SDS011;14031;50.158;8.626;2022-10-31T10:51:15;10.07;;;9.17;;
16173;SDS011;14031;50.158;8.626;2022-10-31T10:53:51;15.27;;;11.23;;
16173;SDS011;14031;50.158;8.626;2022-10-31T10:56:31;11.67;;;8.70;;
16173;SDS011;14031;50.158;8.626;2022-10-31T10:59:06;13.40;;;8.93;;
16173;SDS011;14031;50.158;8.626;2022-10-31T11:01:38;10.30;;;9.33;;
16173;SDS011;14031;50.158;8.626;2022-10-31T11:04:11;9.93;;;9.02;;
16173;SDS011;14031;50.158;8.626;2022-10-31T11:06:56;10.30;;;9.38;;
16173;SDS011;14031;50.158;8.626;2022-10-31T11:09:24;10.82;;;9.70;;
16173;SDS011;14031;50.158;8.626;2022-10-31T11:11:50;9.87;;;9.03;;
16173;SDS011;14031;50.158;8.626;2022-10-31T11:14:18;13.52;;;9.40;;
16173;SDS011;14031;50.158;8.626;2022-10-31T11:16:48;17.02;;;11.52;;
16173;SDS011;14031;50.158;8.626;2022-10-31T11:19:20;12.95;;;10.65;;
16173;SDS011;14031;50.158;8.626;2022-10-31T11:21:50;15.57;;;9.55;;
16173;SDS011;14031;50.158;8.626;2022-10-31T11:24:18;10.25;;;9.27;;
16173;SDS011;14031;50.158;8.626;2022-10-31T11:26:46;11.70;;;9.63;;
16173;SDS011;14031;50.158;8.626;2022-10-31T11:29:16;10.05;;;8.93;;
16173;SDS011;14031;50.158;8.626;2022-10-31T11:31:46;12.65;;;9.70;;
16173;SDS011;14031;50.158;8.626;2022-10-31T11:34:18;14.50;;;9.88;;
16173;SDS011;14031;50.158;8.626;2022-10-31T11:36:53;12.48;;;9.93;;
16173;SDS011;14031;50.158;8.626;2022-10-31T11:39:23;15.73;;;11.70;;
16173;SDS011;14031;50.158;8.626;2022-10-31T11:41:51;13.45;;;9.77;;
16173;SDS011;14031;50.158;8.626;2022-10-31T11:44:20;13.70;;;10.13;;
16173;SDS011;14031;50.158;8.626;2022-10-31T11:46:50;15.20;;;9.85;;
16173;SDS011;14031;50.158;8.626;2022-10-31T11:49:19;11.38;;;8.90;;
16173;SDS011;14031;50.158;8.626;2022-10-31T11:51:50;11.77;;;9.38;;
16173;SDS011;14031;50.158;8.626;2022-10-31T11:54:20;14.70;;;9.48;;
16173;SDS011;14031;50.158;8.626;2022-10-31T11:56:50;10.80;;;9.45;;
16173;SDS011;14031;50.158;8.626;2022-10-31T11:59:18;12.75;;;8.80;;
16173;SDS011;14031;50.158;8.626;2022-10-31T12:01:50;15.63;;;10.98;;
16173;SDS011;14031;50.158;8.626;2022-10-31T12:04:18;12.98;;;8.82;;
16173;SDS011;14031;50.158;8.626;2022-10-31T12:06:51;18.75;;;9.35;;
16173;SDS011;14031;50.158;8.626;2022-10-31T12:09:20;15.35;;;8.63;;
16173;SDS011;14031;50.158;8.626;2022-10-31T12:11:52;16.10;;;10.02;;
16173;SDS011;14031;50.158;8.626;2022-10-31T12:14:37;24.90;;;11.35;;
16173;SDS011;14031;50.158;8.626;2022-10-31T12:17:14;14.23;;;8.93;;
16173;SDS011;14031;50.158;8.626;2022-10-31T12:19:47;12.23;;;7.97;;
16173;SDS011;14031;50.158;8.626;2022-10-31T12:22:27;9.57;;;7.45;;
16173;SDS011;14031;50.158;8.626;2022-10-31T12:25:05;9.82;;;8.18;;
16173;SDS011;14031;50.158;8.626;2022-10-31T12:27:50;8.95;;;7.63;;
16173;SDS011;14031;50.158;8.626;2022-10-31T12:30:31;10.73;;;7.63;;
16173;SDS011;14031;50.158;8.626;2022-10-31T12:33:20;14.73;;;7.03;;
16173;SDS011;14031;50.158;8.626;2022-10-31T12:36:20;14.50;;;10.48;;
16173;SDS011;14031;50.158;8.626;2022-10-31T12:38:59;10.10;;;7.53;;
16173;SDS011;14031;50.158;8.626;2022-10-31T12:41:40;11.73;;;6.70;;
16173;SDS011;14031;50.158;8.626;2022-10-31T12:44:14;12.07;;;7.28;;
16173;SDS011;14031;50.158;8.626;2022-10-31T12:46:59;12.45;;;6.15;;
16173;SDS011;14031;50.158;8.626;2022-10-31T12:49:38;8.90;;;6.85;;
16173;SDS011;14031;50.158;8.626;2022-10-31T12:52:20;8.98;;;6.60;;
16173;SDS011;14031;50.158;8.626;2022-10-31T12:55:10;10.20;;;6.18;;
16173;SDS011;14031;50.158;8.626;2022-10-31T12:57:58;12.07;;;6.25;;
16173;SDS011;14031;50.158;8.626;2022-10-31T13:00:29;10.68;;;6.55;;
16173;SDS011;14031;50.158;8.626;2022-10-31T13:03:01;12.40;;;5.97;;
16173;SDS011;14031;50.158;8.626;2022-10-31T13:05:48;14.75;;;6.13;;
16173;SDS011;14031;50.158;8.626;2022-10-31T13:08:20;13.82;;;6.65;;
16173;SDS011;14031;50.158;8.626;2022-10-31T13:10:52;8.63;;;5.85;;
16173;SDS011;14031;50.158;8.626;2022-10-31T13:13:30;14.18;;;6.90;;
16173;SDS011;14031;50.158;8.626;2022-10-31T13:16:03;8.40;;;5.93;;
16173;SDS011;14031;50.158;8.626;2022-10-31T13:18:38;7.18;;;6.03;;
16173;SDS011;14031;50.158;8.626;2022-10-31T13:21:08;11.82;;;6.07;;
16173;SDS011;14031;50.158;8.626;2022-10-31T13:23:37;6.68;;;5.95;;
16173;SDS011;14031;50.158;8.626;2022-10-31T13:26:08;11.90;;;6.65;;
16173;SDS011;14031;50.158;8.626;2022-10-31T13:28:39;12.13;;;5.78;;
16173;SDS011;14031;50.158;8.626;2022-10-31T13:31:09;9.10;;;5.40;;
16173;SDS011;14031;50.158;8.626;2022-10-31T13:33:38;8.93;;;5.43;;
16173;SDS011;14031;50.158;8.626;2022-10-31T13:36:14;9.52;;;5.50;;
16173;SDS011;14031;50.158;8.626;2022-10-31T13:38:48;9.98;;;5.63;;
16173;SDS011;14031;50.158;8.626;2022-10-31T13:41:27;8.20;;;5.78;;
16173;SDS011;14031;50.158;8.626;2022-10-31T13:44:05;10.40;;;5.57;;
16173;SDS011;14031;50.158;8.626;2022-10-31T13:46:39;7.45;;;6.35;;
16173;SDS011;14031;50.158;8.626;2022-10-31T13:49:21;13.25;;;6.85;;
16173;SDS011;14031;50.158;8.626;2022-10-31T13:51:51;12.32;;;6.38;;
16173;SDS011;14031;50.158;8.626;2022-10-31T13:54:23;6.72;;;6.00;;
16173;SDS011;14031;50.158;8.626;2022-10-31T13:56:59;13.88;;;9.07;;
16173;SDS011;14031;50.158;8.626;2022-10-31T13:59:26;12.77;;;8.23;;
16173;SDS011;14031;50.158;8.626;2022-10-31T14:01:56;7.63;;;6.45;;
16173;SDS011;14031;50.158;8.626;2022-10-31T14:04:25;6.45;;;5.82;;
16173;SDS011;14031;50.158;8.626;2022-10-31T14:07:05;7.72;;;5.72;;
16173;SDS011;14031;50.158;8.626;2022-10-31T14:09:35;6.72;;;5.40;;
16173;SDS011;14031;50.158;8.626;2022-10-31T14:12:06;9.55;;;5.85;;
16173;SDS011;14031;50.158;8.626;2022-10-31T14:14:45;11.32;;;5.93;;
16173;SDS011;14031;50.158;8.626;2022-10-31T14:17:17;9.80;;;5.75;;
16173;SDS011;14031;50.158;8.626;2022-10-31T14:19:59;5.55;;;5.10;;
16173;SDS011;14031;50.158;8.626;2022-10-31T14:22:41;13.10;;;5.70;;
16173;SDS011;14031;50.158;8.626;2022-10-31T14:25:28;11.70;;;5.03;;
16173;SDS011;14031;50.158;8.626;2022-10-31T14:27:58;9.15;;;5.30;;
16173;SDS011;14031;50.158;8.626;2022-10-31T14:30:27;8.25;;;5.97;;
16173;SDS011;14031;50.158;8.626;2022-10-31T14:32:56;17.15;;;9.10;;
16173;SDS011;14031;50.158;8.626;2022-10-31T14:35:27;22.10;;;8.40;;
16173;SDS011;14031;50.158;8.626;2022-10-31T14:38:16;9.10;;;6.80;;
16173;SDS011;14031;50.158;8.626;2022-10-31T14:41:06;6.70;;;5.47;;
16173;SDS011;14031;50.158;8.626;2022-10-31T14:43:51;13.20;;;6.13;;
16173;SDS011;14031;50.158;8.626;2022-10-31T14:46:32;10.95;;;5.88;;
16173;SDS011;14031;50.158;8.626;2022-10-31T14:49:12;11.05;;;5.85;;
16173;SDS011;14031;50.158;8.626;2022-10-31T14:51:51;15.05;;;5.93;;
16173;SDS011;14031;50.158;8.626;2022-10-31T14:54:19;9.13;;;6.18;;
16173;SDS011;14031;50.158;8.626;2022-10-31T14:56:52;12.32;;;5.22;;
16173;SDS011;14031;50.158;8.626;2022-10-31T14:59:23;10.38;;;5.43;;
16173;SDS011;14031;50.158;8.626;2022-10-31T15:01:55;5.93;;;4.88;;
16173;SDS011;14031;50.158;8.626;2022-10-31T15:04:25;6.55;;;4.53;;
16173;SDS011;14031;50.158;8.626;2022-10-31T15:06:55;5.85;;;4.50;;
16173;SDS011;14031;50.158;8.626;2022-10-31T15:09:27;8.15;;;4.95;;